createdAt,value
2022-08-16T00:01:15.178Z,13.73
2022-08-16T00:03:43.233Z,13.05
2022-08-16T00:06:11.737Z,14.35
2022-08-16T00:08:42.385Z,13.00
2022-08-16T00:11:15.571Z,12.73
2022-08-16T00:13:53.772Z,12.85
2022-08-16T00:17:01.177Z,12.25
2022-08-16T00:19:22.404Z,13.57
2022-08-16T00:21:54.478Z,12.57
2022-08-16T00:24:32.675Z,12.60
2022-08-16T00:27:02.492Z,12.57
2022-08-16T00:29:31.180Z,12.43
2022-08-16T00:32:05.528Z,12.73
2022-08-16T00:34:44.988Z,13.27
2022-08-16T00:37:57.056Z,13.45
2022-08-16T00:40:34.412Z,13.38
2022-08-16T00:43:05.417Z,13.75
2022-08-16T00:45:59.968Z,12.82
2022-08-16T00:48:30.851Z,13.23
2022-08-16T00:51:03.010Z,12.43
2022-08-16T00:53:32.156Z,12.88
2022-08-16T00:56:05.436Z,12.95
2022-08-16T00:58:35.481Z,12.50
2022-08-16T01:01:08.264Z,12.30
2022-08-16T01:03:41.430Z,12.20
2022-08-16T01:06:40.074Z,12.38
2022-08-16T01:09:00.228Z,12.30
2022-08-16T01:11:29.536Z,11.93
2022-08-16T01:14:04.719Z,12.32
2022-08-16T01:16:32.299Z,11.43
2022-08-16T01:19:40.902Z,11.70
2022-08-16T01:22:49.778Z,11.82
2022-08-16T01:25:14.447Z,11.45
2022-08-16T01:27:47.549Z,11.43
2022-08-16T01:30:31.902Z,11.20
2022-08-16T01:33:14.102Z,11.20
2022-08-16T01:35:45.552Z,12.10
2022-08-16T01:38:28.329Z,11.23
2022-08-16T01:41:08.161Z,11.77
2022-08-16T01:43:38.807Z,11.73
2022-08-16T01:46:37.666Z,11.50
2022-08-16T01:49:16.566Z,11.38
2022-08-16T01:51:51.506Z,11.82
2022-08-16T01:54:31.187Z,11.30
2022-08-16T01:57:01.878Z,11.73
2022-08-16T01:59:33.642Z,11.57
2022-08-16T02:02:02.313Z,11.95
2022-08-16T02:04:48.055Z,11.77
2022-08-16T02:07:23.461Z,12.57
2022-08-16T02:09:56.913Z,12.68
2022-08-16T02:12:50.596Z,12.95
2022-08-16T02:15:24.861Z,12.18
2022-08-16T02:17:55.358Z,12.73
2022-08-16T02:20:26.475Z,12.88
2022-08-16T02:25:51.092Z,14.02
2022-08-16T02:28:17.256Z,13.68
2022-08-16T02:30:50.905Z,13.77
2022-08-16T02:33:24.754Z,14.32
2022-08-16T02:36:47.897Z,13.68
2022-08-16T02:39:04.901Z,13.93
2022-08-16T02:41:31.841Z,13.40
2022-08-16T02:46:33.898Z,14.43
2022-08-16T02:49:07.217Z,13.68
2022-08-16T02:54:08.342Z,12.52
2022-08-16T02:56:37.972Z,12.40
2022-08-16T02:59:11.663Z,12.70
2022-08-16T03:01:42.323Z,12.32
2022-08-16T03:04:41.105Z,12.50
2022-08-16T03:07:11.694Z,12.30
2022-08-16T03:09:44.782Z,12.70
2022-08-16T03:12:19.317Z,11.75
2022-08-16T03:14:47.934Z,12.00
2022-08-16T03:17:17.961Z,12.20
2022-08-16T03:19:59.826Z,11.90
2022-08-16T03:22:31.748Z,11.90
2022-08-16T03:25:07.657Z,12.23
2022-08-16T03:27:39.167Z,11.13
2022-08-16T03:30:25.086Z,11.60
2022-08-16T03:32:56.837Z,11.25
2022-08-16T03:35:33.377Z,11.80
2022-08-16T03:38:35.260Z,12.65
2022-08-16T03:41:24.245Z,12.70
2022-08-16T03:43:54.737Z,12.18
2022-08-16T03:46:44.894Z,11.77
2022-08-16T03:49:13.557Z,14.05
2022-08-16T03:51:44.872Z,13.35
2022-08-16T03:54:19.312Z,13.18
2022-08-16T03:56:57.035Z,13.90
2022-08-16T03:59:29.842Z,13.23
2022-08-16T04:02:01.083Z,13.80
2022-08-16T04:04:33.430Z,13.60
2022-08-16T04:07:06.948Z,13.20
2022-08-16T04:09:38.226Z,14.18
2022-08-16T04:12:54.823Z,14.95
2022-08-16T04:15:02.386Z,14.07
2022-08-16T04:17:32.837Z,14.50
2022-08-16T04:20:23.716Z,14.70
2022-08-16T04:25:24.164Z,14.48
2022-08-16T04:27:54.338Z,15.13
2022-08-16T04:30:32.126Z,16.38
2022-08-16T04:33:04.552Z,14.20
2022-08-16T04:35:35.929Z,15.57
2022-08-16T04:40:48.181Z,15.25
2022-08-16T04:43:18.544Z,14.55
2022-08-16T04:45:45.969Z,15.52
2022-08-16T04:48:22.085Z,15.25
2022-08-16T04:51:11.700Z,14.93
2022-08-16T04:53:46.221Z,14.80
2022-08-16T04:56:16.485Z,14.65
2022-08-16T04:58:46.602Z,14.07
2022-08-16T05:01:17.911Z,14.85
2022-08-16T05:03:59.661Z,15.73
2022-08-16T05:06:42.480Z,14.30
2022-08-16T05:09:29.500Z,13.20
2022-08-16T05:11:58.775Z,14.43
2022-08-16T05:14:45.333Z,14.32
2022-08-16T05:17:24.876Z,13.80
2022-08-16T05:19:58.026Z,13.38
2022-08-16T05:22:44.472Z,15.43
2022-08-16T05:25:16.599Z,13.93
2022-08-16T05:27:49.162Z,14.07
2022-08-16T05:30:34.822Z,14.25
2022-08-16T05:33:09.099Z,14.07
2022-08-16T05:35:55.595Z,14.55
2022-08-16T05:38:44.316Z,13.98
2022-08-16T05:41:14.938Z,13.82
2022-08-16T05:43:46.848Z,13.68
2022-08-16T05:46:31.169Z,13.82
2022-08-16T05:49:09.096Z,13.63
2022-08-16T05:51:42.562Z,14.00
2022-08-16T05:54:25.078Z,13.57
2022-08-16T05:56:57.548Z,13.70
2022-08-16T05:59:27.718Z,13.00
2022-08-16T06:01:57.054Z,12.13
2022-08-16T06:04:36.482Z,12.43
2022-08-16T06:07:24.530Z,13.43
2022-08-16T06:10:01.937Z,12.97
2022-08-16T06:12:32.726Z,13.23
2022-08-16T06:15:10.500Z,12.73
2022-08-16T06:17:43.967Z,13.40
2022-08-16T06:20:24.302Z,14.43
2022-08-16T06:23:03.422Z,14.00
2022-08-16T06:25:42.434Z,13.52
2022-08-16T06:28:17.168Z,14.07
2022-08-16T06:30:58.716Z,13.20
2022-08-16T06:33:30.329Z,13.02
2022-08-16T06:36:09.811Z,12.60
2022-08-16T06:38:55.400Z,12.80
2022-08-16T06:41:39.500Z,13.20
2022-08-16T06:46:50.580Z,13.45
2022-08-16T06:49:18.800Z,13.30
2022-08-16T06:51:48.306Z,12.80
2022-08-16T06:54:21.926Z,12.45
2022-08-16T06:56:52.362Z,12.05
2022-08-16T06:59:25.637Z,12.73
2022-08-16T07:01:58.202Z,12.25
2022-08-16T07:04:33.083Z,11.75
2022-08-16T07:07:23.345Z,10.98
2022-08-16T07:09:51.361Z,11.05
2022-08-16T07:12:19.517Z,10.73
2022-08-16T07:14:49.487Z,10.63
2022-08-16T07:17:19.464Z,10.23
2022-08-16T07:20:03.562Z,10.75
2022-08-16T07:22:52.544Z,9.32
2022-08-16T07:25:31.597Z,9.23
2022-08-16T07:28:00.574Z,8.55
2022-08-16T07:30:45.115Z,8.85
2022-08-16T07:33:53.821Z,7.90
2022-08-16T07:36:32.189Z,8.20
2022-08-16T07:38:59.372Z,7.95
2022-08-16T07:41:30.291Z,7.70
2022-08-16T07:44:01.675Z,7.55
2022-08-16T07:46:37.773Z,6.90
2022-08-16T07:49:20.368Z,6.55
2022-08-16T07:51:47.815Z,7.43
2022-08-16T07:54:20.777Z,8.15
2022-08-16T07:56:50.921Z,7.88
2022-08-16T07:59:20.185Z,7.72
2022-08-16T08:01:49.492Z,7.22
2022-08-16T08:04:20.897Z,7.40
2022-08-16T08:06:51.210Z,8.63
2022-08-16T08:09:21.108Z,7.03
2022-08-16T08:11:59.911Z,7.10
2022-08-16T08:17:01.867Z,7.45
2022-08-16T08:19:31.306Z,6.65
2022-08-16T08:22:02.071Z,6.78
2022-08-16T08:24:46.830Z,5.97
2022-08-16T08:27:22.473Z,6.03
2022-08-16T08:30:50.609Z,6.10
2022-08-16T08:32:59.460Z,5.47
2022-08-16T08:35:32.237Z,5.95
2022-08-16T08:38:01.609Z,5.68
2022-08-16T08:40:31.625Z,6.03
2022-08-16T08:43:11.898Z,5.90
2022-08-16T08:45:53.172Z,6.18
2022-08-16T08:48:34.580Z,6.28
2022-08-16T08:51:09.733Z,5.85
2022-08-16T08:53:58.005Z,6.00
2022-08-16T08:56:34.753Z,5.55
2022-08-16T08:59:40.695Z,5.18
2022-08-16T09:02:11.455Z,6.13
2022-08-16T09:04:47.454Z,6.32
2022-08-16T09:07:17.718Z,5.20
2022-08-16T09:09:47.692Z,5.38
2022-08-16T09:12:36.222Z,5.80
2022-08-16T09:15:13.453Z,5.40
2022-08-16T09:17:52.347Z,4.82
2022-08-16T09:22:54.410Z,5.13
2022-08-16T09:25:33.670Z,6.38
2022-08-16T09:28:09.553Z,5.45
2022-08-16T09:30:47.726Z,5.85
2022-08-16T09:33:18.349Z,6.57
2022-08-16T09:38:32.101Z,6.68
2022-08-16T09:41:04.137Z,6.47
2022-08-16T09:43:59.735Z,5.90
2022-08-16T09:46:45.753Z,6.70
2022-08-16T09:49:08.663Z,7.15
2022-08-16T09:51:39.562Z,6.90
2022-08-16T09:54:09.737Z,6.50
2022-08-16T09:56:39.406Z,6.80
2022-08-16T09:59:21.073Z,6.57
2022-08-16T10:01:51.116Z,7.63
2022-08-16T10:04:29.326Z,7.40
2022-08-16T10:07:03.151Z,6.93
2022-08-16T10:09:45.006Z,7.57
2022-08-16T10:12:42.393Z,7.88
2022-08-16T10:15:23.324Z,7.68
2022-08-16T10:18:01.562Z,7.28
2022-08-16T10:20:35.333Z,7.28
2022-08-16T10:23:17.214Z,7.13
2022-08-16T10:27:20.711Z,7.95
2022-08-16T10:28:39.990Z,7.32
2022-08-16T10:31:12.007Z,7.38
2022-08-16T10:33:44.665Z,7.07
2022-08-16T10:36:38.151Z,7.57
2022-08-16T10:39:05.261Z,7.30
2022-08-16T10:41:35.620Z,7.55
2022-08-16T10:44:02.899Z,6.80
2022-08-16T10:46:40.062Z,7.30
2022-08-16T10:49:11.400Z,6.75
2022-08-16T10:52:03.201Z,7.00
2022-08-16T10:54:32.165Z,7.60
2022-08-16T10:57:00.984Z,7.72
2022-08-16T11:02:58.614Z,7.13
2022-08-16T11:05:11.611Z,7.00
2022-08-16T11:07:51.732Z,6.97
2022-08-16T11:19:12.275Z,6.90
2022-08-16T11:24:40.169Z,6.78
2022-08-16T11:27:21.694Z,6.18
2022-08-16T11:29:55.009Z,6.60
2022-08-16T11:32:31.366Z,6.07
2022-08-16T11:35:14.624Z,7.05
2022-08-16T11:38:47.285Z,6.55
2022-08-16T11:40:52.158Z,6.20
2022-08-16T11:43:23.736Z,6.60
2022-08-16T11:45:56.683Z,7.25
2022-08-16T11:48:28.635Z,6.50
2022-08-16T11:50:57.638Z,6.18
2022-08-16T11:53:25.685Z,6.35
2022-08-16T11:55:55.279Z,6.50
2022-08-16T11:58:28.283Z,6.30
2022-08-16T12:01:00.065Z,6.07
2022-08-16T12:03:35.177Z,6.30
2022-08-16T12:06:11.238Z,6.07
2022-08-16T12:09:00.829Z,7.05
2022-08-16T12:11:31.481Z,7.85
2022-08-16T12:14:04.254Z,7.20
2022-08-16T12:16:35.625Z,6.32
2022-08-16T12:19:05.575Z,6.75
2022-08-16T12:21:35.844Z,7.25
2022-08-16T12:24:22.251Z,6.88
2022-08-16T12:26:51.724Z,6.68
2022-08-16T12:29:20.057Z,6.85
2022-08-16T12:32:01.424Z,6.70
2022-08-16T12:34:36.853Z,6.40
2022-08-16T12:37:10.388Z,6.28
2022-08-16T12:39:47.066Z,6.07
2022-08-16T12:42:20.506Z,6.18
2022-08-16T12:44:49.521Z,5.80
2022-08-16T12:47:37.984Z,5.78
2022-08-16T12:50:07.546Z,6.45
2022-08-16T12:52:41.703Z,5.97
2022-08-16T12:55:19.777Z,6.00
2022-08-16T12:57:57.897Z,6.57
2022-08-16T13:00:33.159Z,5.80
2022-08-16T13:03:03.016Z,5.95
2022-08-16T13:08:03.667Z,6.57
2022-08-16T13:10:37.632Z,6.20
2022-08-16T13:13:09.225Z,6.03
2022-08-16T13:15:55.594Z,5.85
2022-08-16T13:18:34.477Z,5.28
2022-08-16T13:21:07.699Z,5.43
2022-08-16T13:23:36.591Z,5.97
2022-08-16T13:26:12.829Z,6.40
2022-08-16T13:28:46.179Z,5.85
2022-08-16T13:31:16.000Z,6.05
2022-08-16T13:33:46.151Z,5.88
2022-08-16T13:36:32.281Z,5.90
2022-08-16T13:39:01.504Z,6.07
2022-08-16T13:41:30.882Z,5.90
2022-08-16T13:44:04.171Z,5.72
2022-08-16T13:46:36.926Z,5.60
2022-08-16T13:49:04.244Z,5.88
2022-08-16T13:51:31.460Z,5.78
2022-08-16T13:54:03.865Z,6.30
2022-08-16T13:56:37.979Z,5.80
2022-08-16T13:59:20.543Z,5.75
2022-08-16T14:01:59.738Z,5.88
2022-08-16T14:04:31.403Z,6.13
2022-08-16T14:07:00.863Z,6.10
2022-08-16T14:09:30.064Z,5.82
2022-08-16T14:12:00.666Z,5.90
2022-08-16T14:14:30.045Z,6.03
2022-08-16T14:17:01.181Z,5.95
2022-08-16T14:19:30.002Z,5.53
2022-08-16T14:22:14.404Z,5.20
2022-08-16T14:24:47.954Z,5.65
2022-08-16T14:27:21.351Z,5.50
2022-08-16T14:29:53.222Z,5.75
2022-08-16T14:32:33.181Z,6.00
2022-08-16T14:35:09.084Z,5.88
2022-08-16T14:37:37.131Z,5.53
2022-08-16T14:40:11.114Z,6.00
2022-08-16T14:42:40.524Z,5.28
2022-08-16T14:45:14.247Z,5.47
2022-08-16T14:47:41.862Z,6.03
2022-08-16T14:50:18.539Z,5.53
2022-08-16T14:52:58.616Z,6.50
2022-08-16T14:55:28.636Z,5.65
2022-08-16T14:57:56.165Z,5.45
2022-08-16T15:00:32.990Z,5.90
2022-08-16T15:03:04.514Z,5.75
2022-08-16T15:05:34.990Z,6.23
2022-08-16T15:08:02.701Z,5.53
2022-08-16T15:10:32.342Z,6.13
2022-08-16T15:13:01.098Z,5.82
2022-08-16T15:15:30.196Z,6.18
2022-08-16T15:17:58.668Z,5.50
2022-08-16T15:20:32.633Z,5.50
2022-08-16T15:23:02.709Z,5.38
2022-08-16T15:25:41.309Z,5.63
2022-08-16T15:28:24.098Z,5.55
2022-08-16T15:31:00.531Z,5.03
2022-08-16T15:33:42.629Z,5.13
2022-08-16T15:36:18.007Z,5.18
2022-08-16T15:39:05.812Z,5.43
2022-08-16T15:41:44.724Z,5.97
2022-08-16T15:44:22.101Z,5.65
2022-08-16T15:46:56.252Z,5.82
2022-08-16T15:49:37.884Z,5.78
2022-08-16T15:52:18.357Z,5.85
2022-08-16T15:54:53.281Z,6.00
2022-08-16T15:57:27.230Z,5.82
2022-08-16T15:59:56.415Z,5.90
2022-08-16T16:02:38.979Z,5.63
2022-08-16T16:05:09.668Z,5.43
2022-08-16T16:07:40.634Z,5.72
2022-08-16T16:10:13.303Z,5.65
2022-08-16T16:12:50.316Z,5.40
2022-08-16T16:15:22.643Z,5.78
2022-08-16T16:17:52.588Z,5.55
2022-08-16T16:20:24.555Z,5.82
2022-08-16T16:22:59.473Z,5.35
2022-08-16T16:25:29.861Z,5.28
2022-08-16T16:27:59.957Z,5.68
2022-08-16T16:30:37.948Z,5.75
2022-08-16T16:33:21.427Z,5.43
2022-08-16T16:35:55.514Z,6.25
2022-08-16T16:38:31.148Z,6.10
2022-08-16T16:41:09.304Z,5.85
2022-08-16T16:43:41.614Z,5.75
2022-08-16T16:46:42.042Z,5.30
2022-08-16T16:49:07.153Z,6.10
2022-08-16T16:51:40.909Z,5.55
2022-08-16T16:54:09.717Z,5.35
2022-08-16T16:56:40.324Z,5.38
2022-08-16T16:59:19.856Z,5.95
2022-08-16T17:01:59.410Z,5.75
2022-08-16T17:04:36.952Z,5.60
2022-08-16T17:07:10.487Z,5.72
2022-08-16T17:09:40.173Z,5.80
2022-08-16T17:12:09.150Z,5.88
2022-08-16T17:14:38.527Z,5.50
2022-08-16T17:17:08.634Z,5.63
2022-08-16T17:19:40.759Z,5.45
2022-08-16T17:22:14.085Z,6.20
2022-08-16T17:24:45.334Z,5.80
2022-08-16T17:27:19.386Z,5.78
2022-08-16T17:30:16.457Z,5.93
2022-08-16T17:32:54.500Z,6.28
2022-08-16T17:38:55.809Z,5.80
2022-08-16T17:41:23.880Z,5.45
2022-08-16T17:43:50.916Z,6.10
2022-08-16T17:46:41.138Z,6.30
2022-08-16T17:49:07.785Z,6.60
2022-08-16T17:51:34.938Z,6.45
2022-08-16T17:54:03.617Z,6.50
2022-08-16T17:56:30.770Z,6.00
2022-08-16T17:58:57.767Z,5.95
2022-08-16T18:01:27.810Z,5.88
2022-08-16T18:04:07.480Z,5.93
2022-08-16T18:06:39.775Z,6.13
2022-08-16T18:09:07.806Z,5.93
2022-08-16T18:11:41.031Z,6.03
2022-08-16T18:14:11.496Z,5.95
2022-08-16T18:16:41.262Z,5.85
2022-08-16T18:19:13.763Z,6.15
2022-08-16T18:22:01.726Z,6.13
2022-08-16T18:24:29.671Z,5.70
2022-08-16T18:26:56.579Z,5.47
2022-08-16T18:29:44.068Z,6.00
2022-08-16T18:32:11.623Z,5.78
2022-08-16T18:34:39.922Z,5.75
2022-08-16T18:37:07.829Z,6.00
2022-08-16T18:39:39.135Z,6.03
2022-08-16T18:42:15.058Z,6.70
2022-08-16T18:44:44.111Z,7.07
2022-08-16T18:47:14.191Z,6.20
2022-08-16T18:49:41.208Z,6.57
2022-08-16T18:52:08.331Z,6.63
2022-08-16T18:55:28.293Z,7.03
2022-08-16T18:58:04.952Z,7.07
2022-08-16T19:00:55.826Z,7.23
2022-08-16T19:03:30.101Z,7.45
2022-08-16T19:06:07.042Z,7.72
2022-08-16T19:08:39.904Z,7.93
2022-08-16T19:11:10.248Z,7.55
2022-08-16T19:13:37.406Z,8.38
2022-08-16T19:16:06.058Z,8.30
2022-08-16T19:18:40.064Z,7.72
2022-08-16T19:21:09.016Z,8.27
2022-08-16T19:23:37.421Z,7.78
2022-08-16T19:26:24.886Z,8.02
2022-08-16T19:28:59.734Z,8.05
2022-08-16T19:31:33.609Z,8.00
2022-08-16T19:34:02.403Z,8.25
2022-08-16T19:36:37.559Z,8.63
2022-08-16T19:39:11.919Z,8.43
2022-08-16T19:41:52.058Z,8.52
2022-08-16T19:44:22.145Z,8.20
2022-08-16T19:46:50.035Z,8.77
2022-08-16T19:49:17.328Z,8.68
2022-08-16T19:51:46.992Z,8.38
2022-08-16T19:54:16.505Z,8.73
2022-08-16T19:56:43.738Z,8.50
2022-08-16T19:59:20.433Z,8.68
2022-08-16T20:01:51.118Z,8.82
2022-08-16T20:04:18.609Z,9.65
2022-08-16T20:06:47.216Z,9.20
2022-08-16T20:09:14.915Z,8.88
2022-08-16T20:11:46.017Z,8.77
2022-08-16T20:14:24.244Z,8.40
2022-08-16T20:16:55.018Z,8.60
2022-08-16T20:19:22.051Z,8.20
2022-08-16T20:21:49.730Z,7.85
2022-08-16T20:24:33.531Z,7.47
2022-08-16T20:27:06.085Z,7.60
2022-08-16T20:29:33.555Z,8.60
2022-08-16T20:32:00.651Z,7.85
2022-08-16T20:34:27.664Z,7.78
2022-08-16T20:36:57.654Z,8.20
2022-08-16T20:39:26.894Z,8.10
2022-08-16T20:41:53.833Z,8.23
2022-08-16T20:44:25.076Z,8.77
2022-08-16T20:46:53.797Z,8.48
2022-08-16T20:49:22.145Z,8.52
2022-08-16T20:51:57.382Z,9.50
2022-08-16T20:54:27.284Z,8.52
2022-08-16T20:56:54.465Z,8.85
2022-08-16T20:59:22.466Z,9.05
2022-08-16T21:01:50.352Z,8.48
2022-08-16T21:04:23.033Z,8.65
2022-08-16T21:09:32.503Z,9.32
2022-08-16T21:12:09.518Z,8.73
2022-08-16T21:14:38.933Z,9.02
2022-08-16T21:17:08.419Z,8.40
2022-08-16T21:19:38.917Z,8.85
2022-08-16T21:22:18.296Z,8.27
2022-08-16T21:24:46.432Z,8.63
2022-08-16T21:27:15.240Z,8.88
2022-08-16T21:29:46.207Z,8.57
2022-08-16T21:32:35.730Z,8.55
2022-08-16T21:35:12.850Z,8.80
2022-08-16T21:37:40.553Z,8.50
2022-08-16T21:40:09.961Z,7.85
2022-08-16T21:42:39.643Z,8.40
2022-08-16T21:45:12.303Z,7.60
2022-08-16T21:47:39.477Z,8.30
2022-08-16T21:50:08.338Z,7.50
2022-08-16T21:52:35.486Z,7.85
2022-08-16T21:55:02.443Z,8.43
2022-08-16T21:57:35.495Z,8.40
2022-08-16T22:00:10.402Z,8.10
2022-08-16T22:02:38.979Z,7.43
2022-08-16T22:05:08.349Z,8.50
2022-08-16T22:07:35.319Z,7.30
2022-08-16T22:11:06.266Z,8.25
2022-08-16T22:12:49.597Z,7.57
2022-08-16T22:15:25.667Z,8.07
2022-08-16T22:17:58.285Z,8.10
2022-08-16T22:20:27.588Z,8.02
2022-08-16T22:23:07.102Z,8.00
2022-08-16T22:25:35.800Z,7.70
2022-08-16T22:28:03.417Z,7.95
2022-08-16T22:30:30.800Z,7.93
2022-08-16T22:32:58.021Z,7.53
2022-08-16T22:35:25.148Z,7.82
2022-08-16T22:38:47.766Z,7.65
2022-08-16T22:40:40.288Z,7.85
2022-08-16T22:43:07.159Z,7.68
2022-08-16T22:45:36.318Z,7.22
2022-08-16T22:48:04.575Z,7.68
2022-08-16T22:50:33.654Z,7.88
2022-08-16T22:53:01.050Z,7.00
2022-08-16T22:55:29.327Z,7.38
2022-08-16T22:57:56.629Z,7.43
2022-08-16T23:00:25.882Z,7.63
2022-08-16T23:03:20.342Z,6.90
2022-08-16T23:05:57.394Z,7.63
2022-08-16T23:08:32.288Z,7.70
2022-08-16T23:11:13.084Z,7.05
2022-08-16T23:14:09.845Z,7.50
2022-08-16T23:16:41.723Z,7.45
2022-08-16T23:19:15.796Z,7.53
2022-08-16T23:21:47.123Z,8.02
2022-08-16T23:24:20.499Z,7.63
2022-08-16T23:26:52.563Z,7.40
2022-08-16T23:29:45.692Z,7.50
2022-08-16T23:32:13.757Z,7.70
2022-08-16T23:34:53.070Z,7.35
2022-08-16T23:37:21.869Z,7.65
2022-08-16T23:39:54.536Z,7.30
2022-08-16T23:42:41.993Z,7.40
2022-08-16T23:45:18.776Z,7.20
2022-08-16T23:47:47.578Z,7.55
2022-08-16T23:50:16.157Z,7.13
2022-08-16T23:53:06.402Z,7.28
2022-08-16T23:55:55.114Z,7.50
2022-08-16T23:58:26.431Z,7.80
